Terminal Aerodrome Forecast
Issued by NWS Sterling, VA

Current Version | Previous Version | Graphics & Text | Print | Product List | Glossary On
Versions: 1 2 3 4 5 6 7 8 9 10 11 12 13 14 15 16 17 18 19 20 21 22
385
FTUS41 KLWX 101136
TAFDCA
TAF
KDCA 101136Z 1012/1112 30012KT P6SM OVC080
     FM101400 28012G21KT P6SM BKN070
     FM102100 29013G22KT P6SM BKN040
     FM110400 28016G25KT P6SM SCT250=

USA.gov is the U.S. government's official web portal to all federal, state and local government web resources and services.